createdAt,value
2024-05-09T00:03:41.751Z,96296.03
2024-05-09T00:08:44.322Z,96300.69
2024-05-09T00:13:47.710Z,96291.59
2024-05-09T00:18:50.240Z,96283.97
2024-05-09T00:23:52.636Z,96283.09
2024-05-09T00:28:55.017Z,96281.84
2024-05-09T00:33:57.698Z,96259.31
2024-05-09T00:39:00.154Z,96268.06
2024-05-09T00:44:02.985Z,96269.81
2024-05-09T00:49:05.919Z,96266.06
2024-05-09T00:54:10.220Z,96272.56
2024-05-09T00:59:13.295Z,96278.06
2024-05-09T01:04:16.074Z,96276.38
2024-05-09T01:09:18.555Z,96264.91
2024-05-09T01:14:21.344Z,96274.06
2024-05-09T01:19:28.843Z,96269.00
2024-05-09T01:24:31.326Z,96281.84
2024-05-09T01:29:33.717Z,96281.00
2024-05-09T01:34:36.193Z,96292.06
2024-05-09T01:39:38.709Z,96285.22
2024-05-09T01:44:41.334Z,96283.09
2024-05-09T01:49:43.924Z,96284.91
2024-05-09T01:54:46.537Z,96288.91
2024-05-09T01:59:48.880Z,96299.31
2024-05-09T02:04:51.396Z,96277.84
2024-05-09T02:09:54.204Z,96281.19
2024-05-09T02:14:56.673Z,96285.19
2024-05-09T02:19:59.156Z,96292.59
2024-05-09T02:25:01.583Z,96303.31
2024-05-09T02:30:09.816Z,96293.31
2024-05-09T02:35:17.270Z,96296.47
2024-05-09T02:40:25.682Z,96294.47
2024-05-09T02:45:36.002Z,96294.78
2024-05-09T02:50:40.995Z,96304.78
2024-05-09T02:55:43.709Z,96297.31
2024-05-09T03:00:46.532Z,96302.03
2024-05-09T03:05:49.255Z,96302.88
2024-05-09T03:10:51.871Z,96319.31
2024-05-09T03:15:54.230Z,96305.50
2024-05-09T03:20:56.638Z,96307.13
2024-05-09T03:25:59.470Z,96295.94
2024-05-09T03:31:01.904Z,96320.03
2024-05-09T03:36:09.780Z,96302.03
2024-05-09T03:41:13.447Z,96305.63
2024-05-09T03:46:16.141Z,96318.81
2024-05-09T03:51:18.655Z,96330.25
2024-05-09T03:56:21.330Z,96326.56
2024-05-09T04:01:25.863Z,96334.06
2024-05-09T04:06:28.349Z,96319.31
2024-05-09T04:11:30.870Z,96314.44
2024-05-09T04:16:33.537Z,96316.97
2024-05-09T04:21:36.487Z,96320.75
2024-05-09T04:26:38.892Z,96320.59
2024-05-09T04:31:41.202Z,96335.84
2024-05-09T04:36:44.627Z,96340.28
2024-05-09T04:41:47.212Z,96337.09
2024-05-09T04:46:49.615Z,96336.44
2024-05-09T04:51:52.132Z,96344.63
2024-05-09T04:56:54.493Z,96331.97
2024-05-09T05:01:57.073Z,96342.25
2024-05-09T05:07:02.100Z,96357.97
2024-05-09T05:12:25.465Z,96340.06
2024-05-09T05:17:28.746Z,96353.47
2024-05-09T05:22:31.424Z,96372.34
2024-05-09T05:27:33.775Z,96366.22
2024-05-09T05:32:36.139Z,96360.84
2024-05-09T05:37:38.573Z,96364.25
2024-05-09T05:42:41.644Z,96377.59
2024-05-09T05:47:44.246Z,96379.41
2024-05-09T05:52:46.662Z,96382.72
2024-05-09T05:57:48.930Z,96374.53
2024-05-09T06:02:51.428Z,96390.13
2024-05-09T06:07:53.851Z,96379.41
2024-05-09T06:12:56.199Z,96387.59
2024-05-09T06:17:59.352Z,96388.66
2024-05-09T06:23:03.268Z,96357.34
2024-05-09T06:28:06.210Z,96384.28
2024-05-09T06:33:11.060Z,96391.91
2024-05-09T06:38:15.364Z,96384.28
2024-05-09T06:43:19.442Z,96385.72
2024-05-09T06:48:22.968Z,96384.91
2024-05-09T06:53:25.728Z,96386.34
2024-05-09T06:58:28.222Z,96392.94
2024-05-09T07:03:31.675Z,96366.09
2024-05-09T07:08:34.400Z,96368.63
2024-05-09T07:13:37.219Z,96368.44
2024-05-09T07:18:39.956Z,96364.56
2024-05-09T07:23:45.428Z,96373.59
2024-05-09T07:28:49.615Z,96358.47
2024-05-09T07:33:52.639Z,96357.31
2024-05-09T07:38:55.325Z,96361.97
2024-05-09T07:44:00.687Z,96362.81
2024-05-09T07:50:53.250Z,96373.72
2024-05-09T07:54:25.921Z,96357.44
2024-05-09T07:59:28.338Z,96355.72
2024-05-09T08:04:30.964Z,96351.31
2024-05-09T08:09:34.671Z,96363.53
2024-05-09T08:14:38.223Z,96365.81
2024-05-09T08:19:42.249Z,96373.28
2024-05-09T08:24:47.093Z,96381.88
2024-05-09T08:29:51.914Z,96386.72
2024-05-09T08:34:54.503Z,96395.06
2024-05-09T08:39:58.867Z,96404.16
2024-05-09T08:45:02.203Z,96414.38
2024-05-09T08:50:11.033Z,96412.09
2024-05-09T08:55:19.133Z,96413.75
2024-05-09T09:00:29.701Z,96407.13
2024-05-09T09:05:41.071Z,96421.56
2024-05-09T09:10:43.734Z,96423.72
2024-05-09T09:15:50.622Z,96420.66
2024-05-09T09:20:53.049Z,96401.69
2024-05-09T09:26:00.910Z,96419.84
2024-05-09T09:31:04.181Z,96405.72
2024-05-09T09:36:08.972Z,96421.91
2024-05-09T09:41:12.972Z,96419.03
2024-05-09T09:46:16.732Z,96394.56
2024-05-09T09:51:20.214Z,96411.78
2024-05-09T09:56:24.305Z,96423.00
2024-05-09T10:01:27.187Z,96417.22
2024-05-09T10:06:30.809Z,96406.59
2024-05-09T10:11:42.048Z,96406.19
2024-05-09T10:16:48.313Z,96408.13
2024-05-09T10:21:50.791Z,96405.44
2024-05-09T10:26:54.179Z,96426.06
2024-05-09T10:32:00.294Z,96429.88
2024-05-09T10:37:04.752Z,96428.81
2024-05-09T10:42:10.398Z,96418.94
2024-05-09T10:47:12.892Z,96423.91
2024-05-09T10:52:19.897Z,96435.38
2024-05-09T10:57:23.117Z,96423.19
2024-05-09T11:02:25.648Z,96423.97
2024-05-09T11:07:28.230Z,96437.25
2024-05-09T11:12:30.683Z,96423.66
2024-05-09T11:17:41.888Z,96436.59
2024-05-09T11:22:44.322Z,96434.78
2024-05-09T11:27:46.584Z,96447.22
2024-05-09T11:32:50.077Z,96453.63
2024-05-09T11:37:52.568Z,96451.81
2024-05-09T11:42:54.859Z,96457.81
2024-05-09T11:47:57.616Z,96456.56
2024-05-09T11:53:00.017Z,96464.41
2024-05-09T11:58:05.923Z,96455.84
2024-05-09T12:03:08.427Z,96454.28
2024-05-09T12:08:11.229Z,96453.03
2024-05-09T12:13:13.816Z,96452.59
2024-05-09T12:18:16.204Z,96450.16
2024-05-09T12:23:18.731Z,96459.53
2024-05-09T12:28:21.948Z,96467.16
2024-05-09T12:33:24.751Z,96462.69
2024-05-09T12:38:27.460Z,96460.72
2024-05-09T12:43:30.378Z,96450.06
2024-05-09T12:48:33.071Z,96452.03
2024-05-09T12:53:36.687Z,96472.03
2024-05-09T12:58:39.389Z,96466.47
2024-05-09T13:03:41.999Z,96452.25
2024-05-09T13:08:44.620Z,96457.31
2024-05-09T13:13:46.924Z,96463.75
2024-05-09T13:18:49.560Z,96459.88
2024-05-09T13:23:52.106Z,96457.78
2024-05-09T13:28:54.391Z,96443.91
2024-05-09T13:33:56.851Z,96452.84
2024-05-09T13:38:59.733Z,96452.03
2024-05-09T13:44:01.983Z,96451.00
2024-05-09T13:49:05.052Z,96441.50
2024-05-09T13:54:08.298Z,96434.66
2024-05-09T13:59:10.884Z,96442.88
2024-05-09T14:04:13.437Z,96449.84
2024-05-09T14:09:16.249Z,96453.56
2024-05-09T14:14:18.651Z,96452.34
2024-05-09T14:19:21.613Z,96445.81
2024-05-09T14:24:24.170Z,96452.00
2024-05-09T14:29:26.509Z,96458.59
2024-05-09T14:34:29.111Z,96460.53
2024-05-09T14:39:31.844Z,96451.59
2024-05-09T14:44:34.208Z,96452.97
2024-05-09T14:49:36.829Z,96458.78
2024-05-09T14:54:39.195Z,96447.19
2024-05-09T14:59:41.534Z,96452.97
2024-05-09T15:04:44.140Z,96452.25
2024-05-09T15:09:47.515Z,96453.53
2024-05-09T15:14:50.362Z,96469.13
2024-05-09T15:19:52.958Z,96455.03
2024-05-09T15:24:55.399Z,96464.22
2024-05-09T15:29:57.779Z,96455.69
2024-05-09T15:35:00.216Z,96452.91
2024-05-09T15:40:04.187Z,96446.38
2024-05-09T15:45:07.435Z,96443.75
2024-05-09T15:50:17.264Z,96450.94
2024-05-09T15:55:25.839Z,96459.66
2024-05-09T16:00:36.612Z,96454.38
2024-05-09T16:05:46.918Z,96455.88
2024-05-09T16:10:50.539Z,96452.88
2024-05-09T16:15:53.290Z,96449.41
2024-05-09T16:21:02.805Z,96462.66
2024-05-09T16:26:06.093Z,96469.22
2024-05-09T16:31:08.534Z,96475.25
2024-05-09T16:36:10.996Z,96467.00
2024-05-09T16:41:15.683Z,96487.47
2024-05-09T16:46:18.089Z,96492.34
2024-05-09T16:51:20.521Z,96494.41
2024-05-09T16:56:26.218Z,96497.22
2024-05-09T17:01:28.984Z,96520.47
2024-05-09T17:06:31.497Z,96516.28
2024-05-09T17:11:36.078Z,96511.09
2024-05-09T17:16:38.755Z,96518.91
2024-05-09T17:21:41.293Z,96521.63
2024-05-09T17:26:43.964Z,96525.66
2024-05-09T17:31:47.102Z,96519.91
2024-05-09T17:36:49.479Z,96529.75
2024-05-09T17:41:52.203Z,96536.91
2024-05-09T17:46:54.587Z,96538.88
2024-05-09T17:51:57.468Z,96545.25
2024-05-09T17:56:59.855Z,96542.63
2024-05-09T18:02:02.401Z,96547.22
2024-05-09T18:07:05.475Z,96558.47
2024-05-09T18:12:09.172Z,96561.00
2024-05-09T18:17:13.896Z,96558.38
2024-05-09T18:22:16.305Z,96572.28
2024-05-09T18:27:18.804Z,96567.00
2024-05-09T18:32:21.851Z,96572.44
2024-05-09T18:37:24.437Z,96571.31
2024-05-09T18:42:27.004Z,96592.72
2024-05-09T18:47:29.394Z,96581.63
2024-05-09T18:52:31.673Z,96604.53
2024-05-09T18:57:34.084Z,96597.22
2024-05-09T19:02:36.481Z,96606.88
2024-05-09T19:07:38.853Z,96608.31
2024-05-09T19:12:41.203Z,96618.06
2024-05-09T19:17:43.859Z,96626.19
2024-05-09T19:22:46.440Z,96615.31
2024-05-09T19:27:49.004Z,96627.09
2024-05-09T19:32:51.550Z,96638.88
2024-05-09T19:37:54.262Z,96623.63
2024-05-09T19:42:56.714Z,96630.31
2024-05-09T19:47:59.242Z,96637.91
2024-05-09T19:53:01.911Z,96626.06
2024-05-09T19:58:05.942Z,96635.00
2024-05-09T20:03:10.259Z,96628.22
2024-05-09T20:08:13.250Z,96639.78
2024-05-09T20:13:15.666Z,96637.31
2024-05-09T20:18:18.867Z,96646.06
2024-05-09T20:23:21.570Z,96641.66
2024-05-09T20:28:24.274Z,96638.28
2024-05-09T20:33:27.563Z,96646.13
2024-05-09T20:38:29.925Z,96627.56
2024-05-09T20:43:32.505Z,96635.19
2024-05-09T20:48:35.099Z,96635.66
2024-05-09T20:53:37.535Z,96646.06
2024-05-09T20:58:39.954Z,96651.06
2024-05-09T21:03:42.386Z,96650.75
2024-05-09T21:08:44.781Z,96653.72
2024-05-09T21:13:47.454Z,96643.03
2024-05-09T21:18:50.234Z,96660.88
2024-05-09T21:23:52.569Z,96652.34
2024-05-09T21:28:55.048Z,96648.59
2024-05-09T21:33:57.502Z,96647.56
2024-05-09T21:39:00.259Z,96650.41
2024-05-09T21:44:02.593Z,96646.16
2024-05-09T21:49:05.033Z,96658.53
2024-05-09T21:54:07.382Z,96652.69
2024-05-09T21:59:09.664Z,96663.53
2024-05-09T22:04:12.023Z,96643.06
2024-05-09T22:09:14.653Z,96652.06
2024-05-09T22:14:17.190Z,96647.72
2024-05-09T22:19:19.564Z,96646.97
2024-05-09T22:24:22.025Z,96646.56
2024-05-09T22:29:24.335Z,96648.09
2024-05-09T22:34:26.897Z,96653.41
2024-05-09T22:39:29.309Z,96631.28
2024-05-09T22:44:31.572Z,96654.91
2024-05-09T22:49:33.981Z,96649.06
2024-05-09T22:54:36.782Z,96648.53
2024-05-09T22:59:39.228Z,96636.19
2024-05-09T23:04:42.108Z,96648.84
2024-05-09T23:09:47.952Z,96641.66
2024-05-09T23:14:50.248Z,96634.06
2024-05-09T23:19:52.515Z,96629.41
2024-05-09T23:24:54.902Z,96631.88
2024-05-09T23:29:57.747Z,96631.00
2024-05-09T23:35:00.451Z,96624.09
2024-05-09T23:40:05.086Z,96621.78
2024-05-09T23:45:09.389Z,96624.00
2024-05-09T23:50:16.947Z,96620.63
2024-05-09T23:55:26.022Z,96615.97
